sensor_id;sensor_type;location;lat;lon;timestamp;pressure;altitude;pressure_sealevel;temperature;humidity
73516;BME280;61763;51.416;5.442;2023-12-20T00:00:56;101587.56;;;4.79;100.00
73516;BME280;61763;51.416;5.442;2023-12-20T00:03:21;101590.38;;;4.70;100.00
73516;BME280;61763;51.416;5.442;2023-12-20T00:05:47;101599.41;;;4.61;100.00
73516;BME280;61763;51.416;5.442;2023-12-20T00:08:13;101587.91;;;4.53;100.00
73516;BME280;61763;51.416;5.442;2023-12-20T00:10:38;101591.63;;;4.41;100.00
73516;BME280;61763;51.416;5.442;2023-12-20T00:13:04;101594.28;;;4.43;100.00
73516;BME280;61763;51.416;5.442;2023-12-20T00:15:29;101598.75;;;4.42;100.00
73516;BME280;61763;51.416;5.442;2023-12-20T00:17:54;101611.28;;;4.37;100.00
73516;BME280;61763;51.416;5.442;2023-12-20T00:20:20;101606.84;;;4.36;100.00
73516;BME280;61763;51.416;5.442;2023-12-20T00:22:45;101602.41;;;4.35;100.00
73516;BME280;61763;51.416;5.442;2023-12-20T00:25:11;101596.09;;;4.42;100.00
73516;BME280;61763;51.416;5.442;2023-12-20T00:27:36;101603.25;;;4.37;100.00
73516;BME280;61763;51.416;5.442;2023-12-20T00:30:02;101597.88;;;4.38;100.00
73516;BME280;61763;51.416;5.442;2023-12-20T00:32:27;101598.88;;;4.31;100.00
73516;BME280;61763;51.416;5.442;2023-12-20T00:34:53;101598.06;;;4.26;100.00
73516;BME280;61763;51.416;5.442;2023-12-20T00:37:18;101599.91;;;4.19;100.00
73516;BME280;61763;51.416;5.442;2023-12-20T00:39:43;101599.13;;;4.11;100.00
73516;BME280;61763;51.416;5.442;2023-12-20T00:42:09;101597.47;;;3.99;100.00
73516;BME280;61763;51.416;5.442;2023-12-20T00:44:34;101594.00;;;3.91;100.00
73516;BME280;61763;51.416;5.442;2023-12-20T00:46:59;101584.22;;;3.92;100.00
73516;BME280;61763;51.416;5.442;2023-12-20T00:49:26;101589.59;;;3.85;100.00
73516;BME280;61763;51.416;5.442;2023-12-20T00:51:51;101580.69;;;3.86;100.00
73516;BME280;61763;51.416;5.442;2023-12-20T00:54:18;101593.28;;;3.74;100.00
73516;BME280;61763;51.416;5.442;2023-12-20T00:56:43;101583.53;;;3.68;100.00
73516;BME280;61763;51.416;5.442;2023-12-20T00:59:09;101588.09;;;3.58;100.00
73516;BME280;61763;51.416;5.442;2023-12-20T01:01:34;101583.69;;;3.53;100.00
73516;BME280;61763;51.416;5.442;2023-12-20T01:03:59;101580.91;;;3.63;100.00
73516;BME280;61763;51.416;5.442;2023-12-20T01:06:25;101591.69;;;3.56;100.00
73516;BME280;61763;51.416;5.442;2023-12-20T01:08:50;101586.44;;;3.46;100.00
73516;BME280;61763;51.416;5.442;2023-12-20T01:11:15;101587.25;;;3.51;100.00
73516;BME280;61763;51.416;5.442;2023-12-20T01:13:41;101591.72;;;3.53;100.00
73516;BME280;61763;51.416;5.442;2023-12-20T01:16:10;101595.22;;;3.58;100.00
73516;BME280;61763;51.416;5.442;2023-12-20T01:18:37;101595.25;;;3.53;100.00
73516;BME280;61763;51.416;5.442;2023-12-20T01:21:03;101598.88;;;3.49;100.00
73516;BME280;61763;51.416;5.442;2023-12-20T01:23:30;101609.47;;;3.57;100.00
73516;BME280;61763;51.416;5.442;2023-12-20T01:25:56;101610.25;;;3.68;100.00
73516;BME280;61763;51.416;5.442;2023-12-20T01:28:21;101616.44;;;3.73;100.00
73516;BME280;61763;51.416;5.442;2023-12-20T01:30:47;101600.38;;;3.76;100.00
73516;BME280;61763;51.416;5.442;2023-12-20T01:33:13;101599.34;;;3.90;100.00
73516;BME280;61763;51.416;5.442;2023-12-20T01:35:38;101608.28;;;3.87;100.00
73516;BME280;61763;51.416;5.442;2023-12-20T01:38:03;101600.16;;;3.99;100.00
73516;BME280;61763;51.416;5.442;2023-12-20T01:40:29;101602.00;;;3.93;100.00
73516;BME280;61763;51.416;5.442;2023-12-20T01:43:01;101610.03;;;3.91;100.00
73516;BME280;61763;51.416;5.442;2023-12-20T01:45:27;101607.50;;;3.79;100.00
73516;BME280;61763;51.416;5.442;2023-12-20T01:47:55;101605.78;;;3.72;100.00
73516;BME280;61763;51.416;5.442;2023-12-20T01:50:21;101601.25;;;3.78;100.00
73516;BME280;61763;51.416;5.442;2023-12-20T01:52:49;101602.00;;;3.91;100.00
73516;BME280;61763;51.416;5.442;2023-12-20T01:55:18;101601.91;;;4.03;100.00
73516;BME280;61763;51.416;5.442;2023-12-20T01:57:44;101592.03;;;4.09;100.00
73516;BME280;61763;51.416;5.442;2023-12-20T02:00:12;101592.84;;;4.17;100.00
73516;BME280;61763;51.416;5.442;2023-12-20T02:02:39;101593.59;;;4.25;100.00
73516;BME280;61763;51.416;5.442;2023-12-20T02:05:06;101593.66;;;4.22;100.00
73516;BME280;61763;51.416;5.442;2023-12-20T02:07:31;101587.47;;;4.18;100.00
73516;BME280;61763;51.416;5.442;2023-12-20T02:09:57;101592.88;;;4.11;100.00
73516;BME280;61763;51.416;5.442;2023-12-20T02:12:22;101592.91;;;4.08;100.00
73516;BME280;61763;51.416;5.442;2023-12-20T02:14:48;101600.22;;;3.95;100.00
73516;BME280;61763;51.416;5.442;2023-12-20T02:17:16;101604.69;;;3.90;100.00
73516;BME280;61763;51.416;5.442;2023-12-20T02:19:41;101606.50;;;3.88;100.00
73516;BME280;61763;51.416;5.442;2023-12-20T02:22:10;101608.34;;;3.79;100.00
73516;BME280;61763;51.416;5.442;2023-12-20T02:24:36;101599.47;;;3.80;100.00
73516;BME280;61763;51.416;5.442;2023-12-20T02:27:02;101596.59;;;3.97;100.00
73516;BME280;61763;51.416;5.442;2023-12-20T02:29:28;101586.81;;;3.98;100.00
73516;BME280;61763;51.416;5.442;2023-12-20T02:31:53;101599.22;;;4.00;100.00
73516;BME280;61763;51.416;5.442;2023-12-20T02:34:19;101587.69;;;3.98;100.00
73516;BME280;61763;51.416;5.442;2023-12-20T02:36:44;101588.63;;;3.93;100.00
73516;BME280;61763;51.416;5.442;2023-12-20T02:39:10;101589.56;;;3.87;100.00
73516;BME280;61763;51.416;5.442;2023-12-20T02:41:35;101594.97;;;3.84;100.00
73516;BME280;61763;51.416;5.442;2023-12-20T02:44:01;101590.53;;;3.84;100.00
73516;BME280;61763;51.416;5.442;2023-12-20T02:46:27;101601.16;;;3.89;100.00
73516;BME280;61763;51.416;5.442;2023-12-20T02:48:52;101603.88;;;3.83;100.00
73516;BME280;61763;51.416;5.442;2023-12-20T02:51:18;101609.25;;;3.78;100.00
73516;BME280;61763;51.416;5.442;2023-12-20T02:53:43;101603.91;;;3.81;100.00
73516;BME280;61763;51.416;5.442;2023-12-20T02:56:08;101602.94;;;3.85;100.00
73516;BME280;61763;51.416;5.442;2023-12-20T02:58:34;101601.13;;;3.91;100.00
73516;BME280;61763;51.416;5.442;2023-12-20T03:00:59;101603.69;;;4.01;100.00
73516;BME280;61763;51.416;5.442;2023-12-20T03:03:25;101601.00;;;4.01;100.00
73516;BME280;61763;51.416;5.442;2023-12-20T03:05:51;101601.03;;;4.00;100.00
73516;BME280;61763;51.416;5.442;2023-12-20T03:08:17;101598.34;;;4.00;100.00
73516;BME280;61763;51.416;5.442;2023-12-20T03:10:42;101598.38;;;3.97;100.00
73516;BME280;61763;51.416;5.442;2023-12-20T03:13:07;101596.66;;;3.91;100.00
73516;BME280;61763;51.416;5.442;2023-12-20T03:15:33;101590.47;;;3.89;100.00
73516;BME280;61763;51.416;5.442;2023-12-20T03:17:58;101582.44;;;3.91;100.00
73516;BME280;61763;51.416;5.442;2023-12-20T03:20:24;101583.44;;;3.79;100.00
73516;BME280;61763;51.416;5.442;2023-12-20T03:22:51;101587.97;;;3.72;100.00
73516;BME280;61763;51.416;5.442;2023-12-20T03:25:17;101580.84;;;3.74;100.00
73516;BME280;61763;51.416;5.442;2023-12-20T03:27:42;101589.72;;;3.75;100.00
73516;BME280;61763;51.416;5.442;2023-12-20T03:30:08;101583.53;;;3.68;100.00
73516;BME280;61763;51.416;5.442;2023-12-20T03:32:34;101579.88;;;3.78;100.00
73516;BME280;61763;51.416;5.442;2023-12-20T03:34:59;101586.09;;;3.80;100.00
73516;BME280;61763;51.416;5.442;2023-12-20T03:37:24;101585.16;;;3.86;100.00
73516;BME280;61763;51.416;5.442;2023-12-20T03:39:50;101585.00;;;3.98;100.00
73516;BME280;61763;51.416;5.442;2023-12-20T03:42:15;101581.31;;;4.12;100.00
73516;BME280;61763;51.416;5.442;2023-12-20T03:44:40;101578.56;;;4.16;100.00
73516;BME280;61763;51.416;5.442;2023-12-20T03:47:06;101575.75;;;4.30;100.00
73516;BME280;61763;51.416;5.442;2023-12-20T03:49:32;101573.75;;;4.46;100.00
73516;BME280;61763;51.416;5.442;2023-12-20T03:51:57;101579.06;;;4.49;100.00
73516;BME280;61763;51.416;5.442;2023-12-20T03:54:23;101567.50;;;4.47;100.00
73516;BME280;61763;51.416;5.442;2023-12-20T03:56:48;101564.75;;;4.53;100.00
73516;BME280;61763;51.416;5.442;2023-12-20T03:59:14;101560.25;;;4.55;100.00
73516;BME280;61763;51.416;5.442;2023-12-20T04:01:43;101566.53;;;4.53;100.00
73516;BME280;61763;51.416;5.442;2023-12-20T04:04:10;101570.94;;;4.57;100.00
73516;BME280;61763;51.416;5.442;2023-12-20T04:06:35;101569.09;;;4.61;100.00
73516;BME280;61763;51.416;5.442;2023-12-20T04:09:00;101569.91;;;4.67;100.00
73516;BME280;61763;51.416;5.442;2023-12-20T04:11:26;101563.59;;;4.71;100.00
73516;BME280;61763;51.416;5.442;2023-12-20T04:13:51;101577.03;;;4.67;100.00
73516;BME280;61763;51.416;5.442;2023-12-20T04:16:16;101579.69;;;4.68;100.00
73516;BME280;61763;51.416;5.442;2023-12-20T04:18:42;101571.63;;;4.71;100.00
73516;BME280;61763;51.416;5.442;2023-12-20T04:21:07;101567.28;;;4.63;100.00
73516;BME280;61763;51.416;5.442;2023-12-20T04:23:33;101581.41;;;4.71;100.00
73516;BME280;61763;51.416;5.442;2023-12-20T04:25:58;101574.13;;;4.82;100.00
73516;BME280;61763;51.416;5.442;2023-12-20T04:28:23;101579.50;;;4.81;100.00
73516;BME280;61763;51.416;5.442;2023-12-20T04:30:49;101577.78;;;4.77;100.00
73516;BME280;61763;51.416;5.442;2023-12-20T04:33:14;101572.34;;;4.83;100.00
73516;BME280;61763;51.416;5.442;2023-12-20T04:35:40;101582.06;;;4.88;100.00
73516;BME280;61763;51.416;5.442;2023-12-20T04:38:06;101577.63;;;4.89;100.00
73516;BME280;61763;51.416;5.442;2023-12-20T04:40:31;101583.00;;;4.87;100.00
73516;BME280;61763;51.416;5.442;2023-12-20T04:42:57;101570.47;;;4.89;100.00
73516;BME280;61763;51.416;5.442;2023-12-20T04:45:22;101569.56;;;4.90;100.00
73516;BME280;61763;51.416;5.442;2023-12-20T04:47:50;101573.91;;;4.99;100.00
73516;BME280;61763;51.416;5.442;2023-12-20T04:50:15;101580.16;;;4.98;100.00
73516;BME280;61763;51.416;5.442;2023-12-20T04:52:41;101578.44;;;4.93;100.00
73516;BME280;61763;51.416;5.442;2023-12-20T04:55:06;101578.44;;;4.93;100.00
73516;BME280;61763;51.416;5.442;2023-12-20T04:57:32;101573.13;;;4.91;100.00
73516;BME280;61763;51.416;5.442;2023-12-20T04:59:57;101573.94;;;4.95;100.00
73516;BME280;61763;51.416;5.442;2023-12-20T05:02:22;101580.09;;;5.01;100.00
73516;BME280;61763;51.416;5.442;2023-12-20T05:04:48;101574.75;;;5.00;100.00
73516;BME280;61763;51.416;5.442;2023-12-20T05:07:13;101570.25;;;5.02;100.00
73516;BME280;61763;51.416;5.442;2023-12-20T05:09:39;101563.16;;;5.01;100.00
73516;BME280;61763;51.416;5.442;2023-12-20T05:12:04;101555.94;;;5.06;100.00
73516;BME280;61763;51.416;5.442;2023-12-20T05:14:30;101565.78;;;5.05;100.00
73516;BME280;61763;51.416;5.442;2023-12-20T05:16:55;101556.84;;;5.06;100.00
73516;BME280;61763;51.416;5.442;2023-12-20T05:19:21;101557.69;;;5.08;100.00
73516;BME280;61763;51.416;5.442;2023-12-20T05:21:47;101551.38;;;5.13;100.00
73516;BME280;61763;51.416;5.442;2023-12-20T05:24:12;101553.97;;;5.17;100.00
73516;BME280;61763;51.416;5.442;2023-12-20T05:26:38;101552.16;;;5.19;100.00
73516;BME280;61763;51.416;5.442;2023-12-20T05:29:03;101553.09;;;5.17;100.00
73516;BME280;61763;51.416;5.442;2023-12-20T05:31:28;101551.34;;;5.14;100.00
73516;BME280;61763;51.416;5.442;2023-12-20T05:33:54;101558.53;;;5.11;100.00
73516;BME280;61763;51.416;5.442;2023-12-20T05:36:19;101553.06;;;5.20;100.00
73516;BME280;61763;51.416;5.442;2023-12-20T05:38:45;101556.66;;;5.17;100.00
73516;BME280;61763;51.416;5.442;2023-12-20T05:41:10;101553.97;;;5.17;100.00
73516;BME280;61763;51.416;5.442;2023-12-20T05:43:35;101557.50;;;5.19;100.00
73516;BME280;61763;51.416;5.442;2023-12-20T05:46:01;101555.75;;;5.18;100.00
73516;BME280;61763;51.416;5.442;2023-12-20T05:48:26;101555.75;;;5.18;100.00
73516;BME280;61763;51.416;5.442;2023-12-20T05:50:52;101556.59;;;5.20;100.00
73516;BME280;61763;51.416;5.442;2023-12-20T05:53:18;101569.09;;;5.21;100.00
73516;BME280;61763;51.416;5.442;2023-12-20T05:55:43;101564.41;;;5.33;100.00
73516;BME280;61763;51.416;5.442;2023-12-20T05:58:08;101565.38;;;5.30;100.00
73516;BME280;61763;51.416;5.442;2023-12-20T06:00:34;101560.06;;;5.25;100.00
73516;BME280;61763;51.416;5.442;2023-12-20T06:02:59;101568.31;;;5.13;100.00
73516;BME280;61763;51.416;5.442;2023-12-20T06:05:25;101569.31;;;5.06;100.00
73516;BME280;61763;51.416;5.442;2023-12-20T06:07:50;101573.03;;;4.96;100.00
73516;BME280;61763;51.416;5.442;2023-12-20T06:10:16;101576.00;;;4.79;100.00
73516;BME280;61763;51.416;5.442;2023-12-20T06:12:42;101585.00;;;4.71;100.00
73516;BME280;61763;51.416;5.442;2023-12-20T06:15:07;101573.69;;;4.52;100.00
73516;BME280;61763;51.416;5.442;2023-12-20T06:17:33;101573.63;;;4.55;100.00
73516;BME280;61763;51.416;5.442;2023-12-20T06:20:00;101579.16;;;4.43;100.00
73516;BME280;61763;51.416;5.442;2023-12-20T06:22:25;101579.28;;;4.31;100.00
73516;BME280;61763;51.416;5.442;2023-12-20T06:24:51;101574.91;;;4.25;100.00
73516;BME280;61763;51.416;5.442;2023-12-20T06:27:16;101577.78;;;4.10;100.00
73516;BME280;61763;51.416;5.442;2023-12-20T06:29:42;101585.63;;;4.24;100.00
73516;BME280;61763;51.416;5.442;2023-12-20T06:32:09;101581.22;;;4.18;100.00
73516;BME280;61763;51.416;5.442;2023-12-20T06:34:35;101580.31;;;4.19;100.00
73516;BME280;61763;51.416;5.442;2023-12-20T06:37:00;101589.25;;;4.16;100.00
73516;BME280;61763;51.416;5.442;2023-12-20T06:39:25;101582.97;;;4.20;100.00
73516;BME280;61763;51.416;5.442;2023-12-20T06:41:51;101580.44;;;4.11;100.00
73516;BME280;61763;51.416;5.442;2023-12-20T06:44:16;101581.44;;;4.01;100.00
73516;BME280;61763;51.416;5.442;2023-12-20T06:46:42;101588.56;;;3.97;100.00
73516;BME280;61763;51.416;5.442;2023-12-20T06:49:08;101579.78;;;3.91;100.00
73516;BME280;61763;51.416;5.442;2023-12-20T06:51:33;101586.88;;;3.92;100.00
73516;BME280;61763;51.416;5.442;2023-12-20T06:53:58;101584.16;;;3.98;100.00
73516;BME280;61763;51.416;5.442;2023-12-20T06:56:25;101577.84;;;4.05;100.00
73516;BME280;61763;51.416;5.442;2023-12-20T06:58:50;101576.84;;;4.14;100.00
73516;BME280;61763;51.416;5.442;2023-12-20T07:01:16;101570.50;;;4.23;100.00
73516;BME280;61763;51.416;5.442;2023-12-20T07:03:42;101569.53;;;4.27;100.00
73516;BME280;61763;51.416;5.442;2023-12-20T07:06:08;101569.53;;;4.27;100.00
73516;BME280;61763;51.416;5.442;2023-12-20T07:08:33;101569.47;;;4.33;100.00
73516;BME280;61763;51.416;5.442;2023-12-20T07:10:59;101573.03;;;4.33;100.00
73516;BME280;61763;51.416;5.442;2023-12-20T07:13:24;101565.06;;;4.30;100.00
73516;BME280;61763;51.416;5.442;2023-12-20T07:15:50;101565.06;;;4.30;100.00
73516;BME280;61763;51.416;5.442;2023-12-20T07:18:15;101552.59;;;4.28;100.00
73516;BME280;61763;51.416;5.442;2023-12-20T07:20:40;101559.78;;;4.24;100.00
73516;BME280;61763;51.416;5.442;2023-12-20T07:23:06;101554.50;;;4.18;100.00
73516;BME280;61763;51.416;5.442;2023-12-20T07:25:31;101548.44;;;4.07;100.00
73516;BME280;61763;51.416;5.442;2023-12-20T07:27:58;101554.72;;;4.01;100.00
73516;BME280;61763;51.416;5.442;2023-12-20T07:30:23;101564.50;;;4.00;100.00
73516;BME280;61763;51.416;5.442;2023-12-20T07:32:49;101568.88;;;4.08;100.00
73516;BME280;61763;51.416;5.442;2023-12-20T07:35:15;101571.47;;;4.15;100.00
73516;BME280;61763;51.416;5.442;2023-12-20T07:37:41;101566.94;;;4.22;100.00
73516;BME280;61763;51.416;5.442;2023-12-20T07:40:07;101578.34;;;4.36;100.00
73516;BME280;61763;51.416;5.442;2023-12-20T07:42:33;101574.69;;;4.42;100.00
73516;BME280;61763;51.416;5.442;2023-12-20T07:44:58;101574.56;;;4.51;100.00
73516;BME280;61763;51.416;5.442;2023-12-20T07:47:24;101566.34;;;4.67;100.00
73516;BME280;61763;51.416;5.442;2023-12-20T07:49:51;101570.72;;;4.71;100.00
73516;BME280;61763;51.416;5.442;2023-12-20T07:52:17;101575.16;;;4.73;100.00
73516;BME280;61763;51.416;5.442;2023-12-20T07:54:43;101568.66;;;4.90;100.00
73516;BME280;61763;51.416;5.442;2023-12-20T07:57:10;101564.13;;;4.97;100.00
73516;BME280;61763;51.416;5.442;2023-12-20T07:59:36;101569.41;;;5.00;100.00
73516;BME280;61763;51.416;5.442;2023-12-20T08:02:01;101582.78;;;5.00;100.00
73516;BME280;61763;51.416;5.442;2023-12-20T08:04:26;101579.16;;;5.04;100.00
73516;BME280;61763;51.416;5.442;2023-12-20T08:06:52;101571.19;;;5.01;100.00
73516;BME280;61763;51.416;5.442;2023-12-20T08:09:18;101580.91;;;5.08;100.00
73516;BME280;61763;51.416;5.442;2023-12-20T08:11:45;101581.78;;;5.07;100.00
73516;BME280;61763;51.416;5.442;2023-12-20T08:14:11;101574.59;;;5.11;100.00
73516;BME280;61763;51.416;5.442;2023-12-20T08:16:36;101585.28;;;5.11;100.00
73516;BME280;61763;51.416;5.442;2023-12-20T08:19:02;101585.28;;;5.11;100.00
73516;BME280;61763;51.416;5.442;2023-12-20T08:21:27;101575.53;;;5.09;100.00
73516;BME280;61763;51.416;5.442;2023-12-20T08:23:52;101576.38;;;5.10;100.00
73516;BME280;61763;51.416;5.442;2023-12-20T08:26:19;101586.03;;;5.20;100.00
73516;BME280;61763;51.416;5.442;2023-12-20T08:28:46;101594.97;;;5.19;100.00
73516;BME280;61763;51.416;5.442;2023-12-20T08:31:18;101598.47;;;5.24;100.00
73516;BME280;61763;51.416;5.442;2023-12-20T08:33:45;101583.41;;;5.17;100.00
73516;BME280;61763;51.416;5.442;2023-12-20T08:36:11;101592.34;;;5.16;100.00
73516;BME280;61763;51.416;5.442;2023-12-20T08:38:36;101600.47;;;5.10;100.00
73516;BME280;61763;51.416;5.442;2023-12-20T08:41:03;101593.44;;;5.03;100.00
73516;BME280;61763;51.416;5.442;2023-12-20T08:43:39;101592.38;;;5.13;100.00
73516;BME280;61763;51.416;5.442;2023-12-20T08:46:05;101576.28;;;5.16;100.00
73516;BME280;61763;51.416;5.442;2023-12-20T08:48:31;101583.56;;;5.08;100.00
73516;BME280;61763;51.416;5.442;2023-12-20T08:50:56;101575.56;;;5.05;100.00
73516;BME280;61763;51.416;5.442;2023-12-20T08:53:22;101574.75;;;5.00;100.00
73516;BME280;61763;51.416;5.442;2023-12-20T08:55:47;101568.56;;;4.98;100.00
73516;BME280;61763;51.416;5.442;2023-12-20T08:58:13;101564.00;;;5.03;100.00
73516;BME280;61763;51.416;5.442;2023-12-20T09:00:39;101567.53;;;5.08;100.00
73516;BME280;61763;51.416;5.442;2023-12-20T09:03:05;101564.84;;;5.08;100.00
73516;BME280;61763;51.416;5.442;2023-12-20T09:05:30;101559.41;;;5.13;100.00
73516;BME280;61763;51.416;5.442;2023-12-20T09:07:56;101566.50;;;5.17;100.00
73516;BME280;61763;51.416;5.442;2023-12-20T09:10:21;101552.16;;;5.19;100.00
73516;BME280;61763;51.416;5.442;2023-12-20T09:12:49;101568.22;;;5.18;100.00
73516;BME280;61763;51.416;5.442;2023-12-20T09:15:14;101569.97;;;5.22;100.00
73516;BME280;61763;51.416;5.442;2023-12-20T09:17:40;101563.66;;;5.26;100.00
73516;BME280;61763;51.416;5.442;2023-12-20T09:20:07;101567.97;;;5.35;100.00
73516;BME280;61763;51.416;5.442;2023-12-20T09:22:33;101561.59;;;5.42;100.00
73516;BME280;61763;51.416;5.442;2023-12-20T09:24:59;101562.22;;;5.56;100.00
73516;BME280;61763;51.416;5.442;2023-12-20T09:27:24;101565.63;;;5.66;100.00
73516;BME280;61763;51.416;5.442;2023-12-20T09:29:49;101564.44;;;5.81;100.00
73516;BME280;61763;51.416;5.442;2023-12-20T09:32:15;101559.16;;;5.78;100.00
73516;BME280;61763;51.416;5.442;2023-12-20T09:34:40;101556.19;;;5.93;100.00
73516;BME280;61763;51.416;5.442;2023-12-20T09:37:07;101565.19;;;5.89;100.00
73516;BME280;61763;51.416;5.442;2023-12-20T09:39:33;101562.47;;;5.91;100.00
73516;BME280;61763;51.416;5.442;2023-12-20T09:42:03;101561.63;;;5.87;100.00
73516;BME280;61763;51.416;5.442;2023-12-20T09:44:30;101556.50;;;5.76;100.00
73516;BME280;61763;51.416;5.442;2023-12-20T09:46:56;101554.78;;;5.72;100.00
73516;BME280;61763;51.416;5.442;2023-12-20T09:49:22;101565.50;;;5.72;100.00
73516;BME280;61763;51.416;5.442;2023-12-20T09:51:50;101560.03;;;5.77;100.00
73516;BME280;61763;51.416;5.442;2023-12-20T09:54:19;101560.81;;;5.85;100.00
73516;BME280;61763;51.416;5.442;2023-12-20T09:56:45;101558.13;;;5.85;100.00
73516;BME280;61763;51.416;5.442;2023-12-20T09:59:11;101550.16;;;5.82;100.00
73516;BME280;61763;51.416;5.442;2023-12-20T10:01:38;101557.19;;;5.88;100.00
73516;BME280;61763;51.416;5.442;2023-12-20T10:04:06;101551.88;;;5.85;100.00
73516;BME280;61763;51.416;5.442;2023-12-20T10:06:36;101555.38;;;5.88;100.00
73516;BME280;61763;51.416;5.442;2023-12-20T10:09:02;101554.50;;;5.88;100.00
73516;BME280;61763;51.416;5.442;2023-12-20T10:11:27;101550.97;;;5.86;100.00
73516;BME280;61763;51.416;5.442;2023-12-20T10:14:01;101552.69;;;5.88;100.00
73516;BME280;61763;51.416;5.442;2023-12-20T10:16:27;101544.69;;;5.87;100.00
73516;BME280;61763;51.416;5.442;2023-12-20T10:18:54;101546.38;;;5.92;100.00
73516;BME280;61763;51.416;5.442;2023-12-20T10:21:20;101542.72;;;5.96;100.00
73516;BME280;61763;51.416;5.442;2023-12-20T10:23:45;101538.34;;;5.92;100.00
73516;BME280;61763;51.416;5.442;2023-12-20T10:26:19;101546.41;;;5.91;100.00
73516;BME280;61763;51.416;5.442;2023-12-20T10:28:45;101542.84;;;5.90;100.00
73516;BME280;61763;51.416;5.442;2023-12-20T10:31:26;101552.59;;;5.93;100.00
73516;BME280;61763;51.416;5.442;2023-12-20T10:33:51;101552.56;;;5.94;100.00
73516;BME280;61763;51.416;5.442;2023-12-20T10:36:17;101552.53;;;5.96;100.00
73516;BME280;61763;51.416;5.442;2023-12-20T10:38:42;101571.31;;;5.97;100.00
73516;BME280;61763;51.416;5.442;2023-12-20T10:41:08;101566.66;;;6.07;100.00
73516;BME280;61763;51.416;5.442;2023-12-20T10:43:35;101554.34;;;5.97;100.00
73516;BME280;61763;51.416;5.442;2023-12-20T10:46:03;101544.44;;;6.01;100.00
73516;BME280;61763;51.416;5.442;2023-12-20T10:48:30;101549.75;;;6.04;100.00
73516;BME280;61763;51.416;5.442;2023-12-20T10:50:56;101539.03;;;6.04;100.00
73516;BME280;61763;51.416;5.442;2023-12-20T10:53:22;101536.47;;;5.97;100.00
73516;BME280;61763;51.416;5.442;2023-12-20T10:55:49;101533.72;;;6.01;100.00
73516;BME280;61763;51.416;5.442;2023-12-20T10:58:19;101529.13;;;6.07;100.00
73516;BME280;61763;51.416;5.442;2023-12-20T11:00:47;101529.16;;;6.06;100.00
73516;BME280;61763;51.416;5.442;2023-12-20T11:03:13;101536.25;;;6.10;100.00
73516;BME280;61763;51.416;5.442;2023-12-20T11:05:58;101521.16;;;6.04;100.00
73516;BME280;61763;51.416;5.442;2023-12-20T11:08:33;101521.00;;;6.12;100.00
73516;BME280;61763;51.416;5.442;2023-12-20T11:11:08;101526.28;;;6.15;100.00
73516;BME280;61763;51.416;5.442;2023-12-20T11:13:43;101524.50;;;6.16;100.00
73516;BME280;61763;51.416;5.442;2023-12-20T11:16:13;101525.41;;;6.14;100.00
73516;BME280;61763;51.416;5.442;2023-12-20T11:18:40;101523.47;;;6.21;100.00
73516;BME280;61763;51.416;5.442;2023-12-20T11:21:05;101517.28;;;6.19;100.00
73516;BME280;61763;51.416;5.442;2023-12-20T11:23:34;101518.00;;;6.27;100.00
73516;BME280;61763;51.416;5.442;2023-12-20T11:25:59;101514.38;;;6.28;100.00
73516;BME280;61763;51.416;5.442;2023-12-20T11:28:27;101503.78;;;6.24;100.00
73516;BME280;61763;51.416;5.442;2023-12-20T11:30:56;101504.50;;;6.32;100.00
73516;BME280;61763;51.416;5.442;2023-12-20T11:33:26;101503.66;;;6.28;100.00
73516;BME280;61763;51.416;5.442;2023-12-20T11:35:59;101497.53;;;6.23;100.00
73516;BME280;61763;51.416;5.442;2023-12-20T11:38:25;101490.34;;;6.25;100.00
73516;BME280;61763;51.416;5.442;2023-12-20T11:40:53;101478.78;;;6.23;100.00
73516;BME280;61763;51.416;5.442;2023-12-20T11:43:37;101484.06;;;6.26;100.00
73516;BME280;61763;51.416;5.442;2023-12-20T11:46:06;101489.56;;;6.20;100.00
73516;BME280;61763;51.416;5.442;2023-12-20T11:48:33;101483.41;;;6.15;100.00
73516;BME280;61763;51.416;5.442;2023-12-20T11:50:59;101484.28;;;6.17;100.00
73516;BME280;61763;51.416;5.442;2023-12-20T11:53:25;101494.94;;;6.20;100.00
73516;BME280;61763;51.416;5.442;2023-12-20T11:55:50;101493.16;;;6.19;100.00
73516;BME280;61763;51.416;5.442;2023-12-20T11:58:16;101487.75;;;6.21;100.00
73516;BME280;61763;51.416;5.442;2023-12-20T12:00:43;101483.25;;;6.23;100.00
73516;BME280;61763;51.416;5.442;2023-12-20T12:03:09;101482.56;;;6.13;100.00
73516;BME280;61763;51.416;5.442;2023-12-20T12:05:34;101475.38;;;6.15;100.00
73516;BME280;61763;51.416;5.442;2023-12-20T12:08:00;101461.13;;;6.13;100.00
73516;BME280;61763;51.416;5.442;2023-12-20T12:10:26;101460.25;;;6.11;100.00
73516;BME280;61763;51.416;5.442;2023-12-20T12:12:51;101450.34;;;6.16;100.00
73516;BME280;61763;51.416;5.442;2023-12-20T12:15:17;101443.28;;;6.12;100.00
73516;BME280;61763;51.416;5.442;2023-12-20T12:17:42;101443.31;;;6.10;100.00
73516;BME280;61763;51.416;5.442;2023-12-20T12:20:08;101450.44;;;6.11;100.00
73516;BME280;61763;51.416;5.442;2023-12-20T12:22:35;101442.44;;;6.10;100.00
73516;BME280;61763;51.416;5.442;2023-12-20T12:25:09;101444.19;;;6.11;100.00
73516;BME280;61763;51.416;5.442;2023-12-20T12:27:35;101448.66;;;6.10;100.00
73516;BME280;61763;51.416;5.442;2023-12-20T12:30:02;101449.47;;;6.16;100.00
73516;BME280;61763;51.416;5.442;2023-12-20T12:32:28;101458.28;;;6.21;100.00
73516;BME280;61763;51.416;5.442;2023-12-20T12:34:54;101459.25;;;6.17;100.00
73516;BME280;61763;51.416;5.442;2023-12-20T12:37:19;101444.72;;;6.27;100.00
73516;BME280;61763;51.416;5.442;2023-12-20T12:39:46;101440.88;;;6.39;100.00
73516;BME280;61763;51.416;5.442;2023-12-20T12:42:12;101436.19;;;6.48;100.00
73516;BME280;61763;51.416;5.442;2023-12-20T12:44:37;101436.94;;;6.55;100.00